createdAt,value
2018-02-27T00:00:17.697Z,5.90
2018-02-27T00:02:45.973Z,5.30
2018-02-27T00:05:14.265Z,4.47
2018-02-27T00:07:42.525Z,4.18
2018-02-27T00:10:10.031Z,5.40
2018-02-27T00:12:37.560Z,5.82
2018-02-27T00:15:05.841Z,5.87
2018-02-27T00:17:33.364Z,4.90
2018-02-27T00:20:00.873Z,5.32
2018-02-27T00:22:28.404Z,5.57
2018-02-27T00:24:56.665Z,4.28
2018-02-27T00:27:24.171Z,5.32
2018-02-27T00:29:51.696Z,6.10
2018-02-27T00:32:19.972Z,6.32
2018-02-27T00:34:47.493Z,5.62
2018-02-27T00:37:15.184Z,5.22
2018-02-27T00:39:42.762Z,5.50
2018-02-27T00:42:11.029Z,6.75
2018-02-27T00:44:38.537Z,6.22
2018-02-27T00:47:06.068Z,5.62
2018-02-27T00:49:34.332Z,5.62
2018-02-27T00:52:01.880Z,5.10
2018-02-27T00:54:29.401Z,5.70
2018-02-27T00:56:56.936Z,7.00
2018-02-27T00:59:24.478Z,5.78
2018-02-27T01:01:52.014Z,6.50
2018-02-27T01:04:19.520Z,5.72
2018-02-27T01:06:47.043Z,6.57
2018-02-27T01:09:14.591Z,5.37
2018-02-27T01:11:42.113Z,5.87
2018-02-27T01:14:09.685Z,4.05
2018-02-27T01:16:37.218Z,5.95
2018-02-27T01:19:04.769Z,5.20
2018-02-27T01:21:33.039Z,4.07
2018-02-27T01:24:01.328Z,6.22
2018-02-27T01:26:28.870Z,5.47
2018-02-27T01:28:57.137Z,5.50
2018-02-27T01:31:24.663Z,5.85
2018-02-27T01:33:52.176Z,5.93
2018-02-27T01:36:20.474Z,6.47
2018-02-27T01:38:48.150Z,5.85
2018-02-27T01:41:15.678Z,6.85
2018-02-27T01:43:43.964Z,6.05
2018-02-27T01:46:11.487Z,3.83
2018-02-27T01:48:39.025Z,6.00
2018-02-27T01:51:14.362Z,6.28
2018-02-27T01:53:41.909Z,5.95
2018-02-27T01:56:09.420Z,5.82
2018-02-27T01:58:36.945Z,5.90
2018-02-27T02:01:04.474Z,6.03
2018-02-27T02:03:31.992Z,3.85
2018-02-27T02:05:59.538Z,6.07
2018-02-27T02:08:27.051Z,6.82
2018-02-27T02:10:54.585Z,7.62
2018-02-27T02:13:22.861Z,6.80
2018-02-27T02:15:51.166Z,5.95
2018-02-27T02:18:18.699Z,5.80
2018-02-27T02:20:46.211Z,6.72
2018-02-27T02:23:15.321Z,5.55
2018-02-27T02:25:42.839Z,6.30
2018-02-27T02:28:10.378Z,6.32
2018-02-27T02:30:38.654Z,6.97
2018-02-27T02:33:06.983Z,4.47
2018-02-27T02:35:34.637Z,5.68
2018-02-27T02:38:02.213Z,6.78
2018-02-27T02:40:29.716Z,6.70
2018-02-27T02:42:57.245Z,6.18
2018-02-27T02:45:24.781Z,6.30
2018-02-27T02:47:52.293Z,5.35
2018-02-27T02:50:20.598Z,6.25
2018-02-27T02:52:48.100Z,4.87
2018-02-27T02:55:16.408Z,7.53
2018-02-27T02:57:43.932Z,7.35
2018-02-27T03:00:11.450Z,5.78
2018-02-27T03:02:38.985Z,6.72
2018-02-27T03:05:06.499Z,6.47
2018-02-27T03:07:34.068Z,5.40
2018-02-27T03:10:01.586Z,7.25
2018-02-27T03:12:30.165Z,7.00
2018-02-27T03:14:59.142Z,7.47
2018-02-27T03:17:27.416Z,6.68
2018-02-27T03:19:55.005Z,6.47
2018-02-27T03:22:23.276Z,6.35
2018-02-27T03:24:51.578Z,7.43
2018-02-27T03:27:19.098Z,7.78
2018-02-27T03:29:46.633Z,7.43
2018-02-27T03:32:14.145Z,5.95
2018-02-27T03:34:41.693Z,6.90
2018-02-27T03:37:09.993Z,7.62
2018-02-27T03:39:37.520Z,6.68
2018-02-27T03:42:05.817Z,7.18
2018-02-27T03:44:34.084Z,6.70
2018-02-27T03:47:02.376Z,7.68
2018-02-27T03:49:29.911Z,6.82
2018-02-27T03:51:58.269Z,7.18
2018-02-27T03:54:27.416Z,8.00
2018-02-27T03:56:54.936Z,8.18
2018-02-27T03:59:22.480Z,6.93
2018-02-27T04:01:50.029Z,6.40
2018-02-27T04:04:17.553Z,6.28
2018-02-27T04:06:45.979Z,5.50
2018-02-27T04:09:13.512Z,6.30
2018-02-27T04:11:41.008Z,6.70
2018-02-27T04:14:08.541Z,6.72
2018-02-27T04:16:36.052Z,7.45
2018-02-27T04:19:04.965Z,6.28
2018-02-27T04:21:32.479Z,8.55
2018-02-27T04:23:59.980Z,4.07
2018-02-27T04:26:27.495Z,6.07
2018-02-27T04:28:54.993Z,6.32
2018-02-27T04:31:22.522Z,6.75
2018-02-27T04:33:50.028Z,7.05
2018-02-27T04:36:17.561Z,8.02
2018-02-27T04:38:45.841Z,6.80
2018-02-27T04:41:14.117Z,6.95
2018-02-27T04:43:42.412Z,6.93
2018-02-27T04:46:09.915Z,7.25
2018-02-27T04:48:37.445Z,5.95
2018-02-27T04:51:04.964Z,7.00
2018-02-27T04:53:32.626Z,4.50
2018-02-27T04:56:00.946Z,4.95
2018-02-27T04:58:28.470Z,6.75
2018-02-27T05:00:56.765Z,6.80
2018-02-27T05:03:25.033Z,5.05
2018-02-27T05:05:53.677Z,5.05
2018-02-27T05:08:21.192Z,7.00
2018-02-27T05:10:48.731Z,8.13
2018-02-27T05:13:16.237Z,7.15
2018-02-27T05:15:43.760Z,5.03
2018-02-27T05:18:12.057Z,8.40
2018-02-27T05:20:39.569Z,6.40
2018-02-27T05:23:07.131Z,7.55
2018-02-27T05:25:34.672Z,6.65
2018-02-27T05:28:02.235Z,7.22
2018-02-27T05:30:29.762Z,5.95
2018-02-27T05:32:57.298Z,6.45
2018-02-27T05:35:25.597Z,7.32
2018-02-27T05:37:53.114Z,7.80
2018-02-27T05:40:20.757Z,7.47
2018-02-27T05:42:48.269Z,8.77
2018-02-27T05:45:15.793Z,8.77
2018-02-27T05:47:43.301Z,6.15
2018-02-27T05:50:10.828Z,7.97
2018-02-27T05:52:39.124Z,6.47
2018-02-27T05:55:06.636Z,6.95
2018-02-27T05:57:34.163Z,7.25
2018-02-27T06:00:01.656Z,7.53
2018-02-27T06:02:29.196Z,7.68
2018-02-27T06:04:56.763Z,7.68
2018-02-27T06:07:24.231Z,6.57
2018-02-27T06:09:51.758Z,7.72
2018-02-27T06:12:19.264Z,7.78
2018-02-27T06:14:46.793Z,5.55
2018-02-27T06:17:14.305Z,6.72
2018-02-27T06:19:41.829Z,8.32
2018-02-27T06:22:09.359Z,7.60
2018-02-27T06:24:36.864Z,6.53
2018-02-27T06:27:04.402Z,6.97
2018-02-27T06:29:32.939Z,8.32
2018-02-27T06:32:00.471Z,8.20
2018-02-27T06:34:28.009Z,5.18
2018-02-27T06:36:55.541Z,7.22
2018-02-27T06:39:23.076Z,9.02
2018-02-27T06:41:51.368Z,5.90
2018-02-27T06:44:18.892Z,6.93
2018-02-27T06:46:46.470Z,8.38
2018-02-27T06:49:14.774Z,8.13
2018-02-27T06:51:42.285Z,8.90
2018-02-27T06:54:09.797Z,8.10
2018-02-27T06:56:37.331Z,8.10
2018-02-27T06:59:05.604Z,7.97
2018-02-27T07:01:33.907Z,8.57
2018-02-27T07:04:01.421Z,6.53
2018-02-27T07:06:28.969Z,8.32
2018-02-27T07:08:56.480Z,8.48
2018-02-27T07:11:23.986Z,7.43
2018-02-27T07:13:51.529Z,8.15
2018-02-27T07:16:19.060Z,6.95
2018-02-27T07:18:46.589Z,6.62
2018-02-27T07:21:14.881Z,7.60
2018-02-27T07:23:43.185Z,8.13
2018-02-27T07:26:10.701Z,8.88
2018-02-27T07:28:38.987Z,9.43
2018-02-27T07:31:07.297Z,7.87
2018-02-27T07:33:34.897Z,7.40
2018-02-27T07:36:02.437Z,8.07
2018-02-27T07:38:29.951Z,8.63
2018-02-27T07:40:57.498Z,8.70
2018-02-27T07:43:25.785Z,8.40
2018-02-27T07:45:53.489Z,5.75
2018-02-27T07:48:21.028Z,9.68
2018-02-27T07:50:48.553Z,7.95
2018-02-27T07:53:16.086Z,7.80
2018-02-27T07:55:43.599Z,7.93
2018-02-27T07:58:11.137Z,8.43
2018-02-27T08:00:38.657Z,8.40
2018-02-27T08:03:06.184Z,6.45
2018-02-27T08:05:33.697Z,9.07
2018-02-27T08:08:01.218Z,8.52
2018-02-27T08:10:28.753Z,8.65
2018-02-27T08:12:57.032Z,8.55
2018-02-27T08:15:25.322Z,8.40
2018-02-27T08:17:52.834Z,8.75
2018-02-27T08:20:20.358Z,8.60
2018-02-27T08:22:47.894Z,9.23
2018-02-27T08:25:15.403Z,9.32
2018-02-27T08:27:42.928Z,9.38
2018-02-27T08:30:10.445Z,9.82
2018-02-27T08:32:38.196Z,9.00
2018-02-27T08:35:06.620Z,9.73
2018-02-27T08:37:34.181Z,11.50
2018-02-27T08:40:01.713Z,10.05
2018-02-27T08:42:29.269Z,8.73
2018-02-27T08:44:56.796Z,9.73
2018-02-27T08:47:24.312Z,9.50
2018-02-27T08:49:52.632Z,7.68
2018-02-27T08:52:20.173Z,9.05
2018-02-27T08:54:47.699Z,10.60
2018-02-27T08:57:15.979Z,9.18
2018-02-27T08:59:44.264Z,10.40
2018-02-27T09:02:12.539Z,9.85
2018-02-27T09:04:40.812Z,9.57
2018-02-27T09:07:09.112Z,10.20
2018-02-27T09:09:36.632Z,10.93
2018-02-27T09:12:04.164Z,10.50
2018-02-27T09:14:31.695Z,10.13
2018-02-27T09:16:59.260Z,8.10
2018-02-27T09:19:26.776Z,7.25
2018-02-27T09:21:54.297Z,10.77
2018-02-27T09:24:21.918Z,10.32
2018-02-27T09:26:50.304Z,11.27
2018-02-27T09:29:19.606Z,11.40
2018-02-27T09:31:47.877Z,10.48
2018-02-27T09:34:15.413Z,9.50
2018-02-27T09:36:43.922Z,10.18
2018-02-27T09:39:12.206Z,10.38
2018-02-27T09:41:39.754Z,10.88
2018-02-27T09:44:08.026Z,7.85
2018-02-27T09:46:36.056Z,10.65
2018-02-27T09:49:03.587Z,10.48
2018-02-27T09:51:31.996Z,9.80
2018-02-27T09:53:59.518Z,11.30
2018-02-27T09:56:27.067Z,10.45
2018-02-27T09:58:55.357Z,11.48
2018-02-27T10:01:22.880Z,11.88
2018-02-27T10:03:50.417Z,10.85
2018-02-27T10:06:17.970Z,11.48
2018-02-27T10:08:46.418Z,8.95
2018-02-27T10:11:13.939Z,11.10
2018-02-27T10:13:41.535Z,10.98
2018-02-27T10:16:09.066Z,11.43
2018-02-27T10:18:37.380Z,12.07
2018-02-27T10:21:04.897Z,9.82
2018-02-27T10:23:32.425Z,8.02
2018-02-27T10:25:59.956Z,11.10
2018-02-27T10:28:27.486Z,11.45
2018-02-27T10:30:55.777Z,8.45
2018-02-27T10:33:23.317Z,9.55
2018-02-27T10:35:52.390Z,9.43
2018-02-27T10:38:19.892Z,8.10
2018-02-27T10:40:48.165Z,10.73
2018-02-27T10:43:16.468Z,11.50
2018-02-27T10:45:43.980Z,11.23
2018-02-27T10:48:11.517Z,10.82
2018-02-27T10:50:39.032Z,12.23
2018-02-27T10:53:07.323Z,10.20
2018-02-27T10:55:34.833Z,8.82
2018-02-27T10:58:02.399Z,10.05
2018-02-27T11:00:35.517Z,11.45
2018-02-27T11:03:03.073Z,11.32
2018-02-27T11:05:31.352Z,9.23
2018-02-27T11:07:59.629Z,11.40
2018-02-27T11:10:27.930Z,11.95
2018-02-27T11:12:55.465Z,11.23
2018-02-27T11:15:23.747Z,11.75
2018-02-27T11:17:52.024Z,11.98
2018-02-27T11:20:20.321Z,10.63
2018-02-27T11:22:47.834Z,11.60
2018-02-27T11:25:15.354Z,11.57
2018-02-27T11:27:42.900Z,11.48
2018-02-27T11:30:10.415Z,12.18
2018-02-27T11:32:37.945Z,12.93
2018-02-27T11:35:05.460Z,12.27
2018-02-27T11:37:33.006Z,12.77
2018-02-27T11:40:00.517Z,12.20
2018-02-27T11:42:28.029Z,11.85
2018-02-27T11:44:56.322Z,11.43
2018-02-27T11:47:23.842Z,11.75
2018-02-27T11:49:51.365Z,11.85
2018-02-27T11:52:19.460Z,11.55
2018-02-27T11:54:46.995Z,12.60
2018-02-27T11:57:14.508Z,11.85
2018-02-27T11:59:42.022Z,11.82
2018-02-27T12:02:09.552Z,11.85
2018-02-27T12:04:37.857Z,12.30
2018-02-27T12:07:05.410Z,11.55
2018-02-27T12:09:32.928Z,13.15
2018-02-27T12:12:00.462Z,12.25
2018-02-27T12:14:27.963Z,11.70
2018-02-27T12:16:56.246Z,9.27
2018-02-27T12:19:24.533Z,8.98
2018-02-27T12:21:52.193Z,10.52
2018-02-27T12:24:19.725Z,12.70
2018-02-27T12:26:47.249Z,10.77
2018-02-27T12:29:14.887Z,11.95
2018-02-27T12:31:42.392Z,9.43
2018-02-27T12:34:09.903Z,12.40
2018-02-27T12:36:38.370Z,11.70
2018-02-27T12:39:06.670Z,9.70
2018-02-27T12:41:34.942Z,12.65
2018-02-27T12:44:02.471Z,8.38
2018-02-27T12:46:30.750Z,12.37
2018-02-27T12:48:59.065Z,12.23
2018-02-27T12:51:26.580Z,11.73
2018-02-27T12:53:54.114Z,12.00
2018-02-27T12:56:21.645Z,6.18
2018-02-27T12:58:49.192Z,11.73
2018-02-27T13:01:16.715Z,10.52
2018-02-27T13:03:44.238Z,11.95
2018-02-27T13:06:11.777Z,11.15
2018-02-27T13:08:39.289Z,11.12
2018-02-27T13:11:06.824Z,11.77
2018-02-27T13:13:34.373Z,10.60
2018-02-27T13:16:01.901Z,13.40
2018-02-27T13:18:30.203Z,12.27
2018-02-27T13:20:57.710Z,13.35
2018-02-27T13:23:25.305Z,9.77
2018-02-27T13:25:52.850Z,12.02
2018-02-27T13:28:21.161Z,11.93
2018-02-27T13:30:48.694Z,12.98
2018-02-27T13:33:17.016Z,10.60
2018-02-27T13:35:44.545Z,10.25
2018-02-27T13:38:12.057Z,13.38
2018-02-27T13:40:39.590Z,12.90
2018-02-27T13:43:07.089Z,11.50
2018-02-27T13:45:34.655Z,10.13
2018-02-27T13:48:02.170Z,13.80
2018-02-27T13:50:29.712Z,11.98
2018-02-27T13:52:57.265Z,12.65
2018-02-27T13:55:24.801Z,12.32
2018-02-27T13:57:53.185Z,12.07
2018-02-27T14:00:21.477Z,11.75
2018-02-27T14:02:49.021Z,10.32
2018-02-27T14:05:16.546Z,11.18
2018-02-27T14:07:44.084Z,10.07
2018-02-27T14:10:11.599Z,14.18
2018-02-27T14:12:39.905Z,12.30
2018-02-27T14:15:07.409Z,13.23
2018-02-27T14:17:35.018Z,12.45
2018-02-27T14:20:02.558Z,11.25
2018-02-27T14:22:30.844Z,11.30
2018-02-27T14:24:59.145Z,12.40
2018-02-27T14:27:26.659Z,11.52
2018-02-27T14:29:55.189Z,12.73
2018-02-27T14:32:22.693Z,10.77
2018-02-27T14:34:50.221Z,12.48
2018-02-27T14:37:17.757Z,12.80
2018-02-27T14:39:45.320Z,11.27
2018-02-27T14:42:12.816Z,10.98
2018-02-27T14:44:40.338Z,12.35
2018-02-27T14:47:07.874Z,13.48
2018-02-27T14:49:36.171Z,12.55
2018-02-27T14:52:03.685Z,11.80
2018-02-27T14:54:31.235Z,11.05
2018-02-27T14:56:58.766Z,13.45
2018-02-27T14:59:26.307Z,12.48
2018-02-27T15:01:53.808Z,13.45
2018-02-27T15:04:21.353Z,14.20
2018-02-27T15:06:48.863Z,12.95
2018-02-27T15:09:17.156Z,13.98
2018-02-27T15:11:44.769Z,12.55
2018-02-27T15:14:13.665Z,14.05
2018-02-27T15:16:41.192Z,13.80
2018-02-27T15:19:08.723Z,13.32
2018-02-27T15:21:37.040Z,11.98
2018-02-27T15:24:04.572Z,12.32
2018-02-27T15:26:32.107Z,15.07
2018-02-27T15:28:59.650Z,13.50
2018-02-27T15:31:27.167Z,12.73
2018-02-27T15:33:54.701Z,9.93
2018-02-27T15:36:22.985Z,12.25
2018-02-27T15:38:53.244Z,13.52
2018-02-27T15:41:21.589Z,12.75
2018-02-27T15:43:49.103Z,14.20
2018-02-27T15:46:16.732Z,14.18
2018-02-27T15:48:45.174Z,12.95
2018-02-27T15:51:13.570Z,12.20
2018-02-27T15:53:41.856Z,13.25
2018-02-27T15:56:10.158Z,12.95
2018-02-27T15:58:37.674Z,14.93
2018-02-27T16:01:05.203Z,12.15
2018-02-27T16:03:32.826Z,13.50
2018-02-27T16:06:00.329Z,14.90
2018-02-27T16:08:28.860Z,13.57
2018-02-27T16:10:56.395Z,13.73
2018-02-27T16:13:23.924Z,13.25
2018-02-27T16:15:51.445Z,13.40
2018-02-27T16:18:19.002Z,14.18
2018-02-27T16:20:46.512Z,13.27
2018-02-27T16:23:14.044Z,12.65
2018-02-27T16:25:41.577Z,13.85
2018-02-27T16:28:09.104Z,13.98
2018-02-27T16:30:36.643Z,15.68
2018-02-27T16:33:04.178Z,12.20
2018-02-27T16:35:31.710Z,13.18
2018-02-27T16:37:59.241Z,13.35
2018-02-27T16:40:26.776Z,12.75
2018-02-27T16:42:54.286Z,13.15
2018-02-27T16:45:22.565Z,10.85
2018-02-27T16:47:50.865Z,13.35
2018-02-27T16:50:18.396Z,14.20
2018-02-27T16:52:46.720Z,12.88
2018-02-27T16:55:14.244Z,13.45
2018-02-27T16:57:42.556Z,16.87
2018-02-27T17:00:10.056Z,12.43
2018-02-27T17:02:38.384Z,11.90
2018-02-27T17:05:05.925Z,12.75
2018-02-27T17:07:34.209Z,12.60
2018-02-27T17:10:01.763Z,13.32
2018-02-27T17:12:30.046Z,11.77
2018-02-27T17:14:57.580Z,11.52
2018-02-27T17:17:25.896Z,13.00
2018-02-27T17:19:53.444Z,12.77
2018-02-27T17:22:20.961Z,12.68
2018-02-27T17:24:48.488Z,12.55
2018-02-27T17:27:16.039Z,12.60
2018-02-27T17:29:43.554Z,13.88
2018-02-27T17:32:11.089Z,14.77
2018-02-27T17:34:38.609Z,10.02
2018-02-27T17:37:06.141Z,13.10
2018-02-27T17:39:33.673Z,12.00
2018-02-27T17:42:01.203Z,11.93
2018-02-27T17:44:28.765Z,14.30
2018-02-27T17:46:56.287Z,13.32
2018-02-27T17:49:24.596Z,13.30
2018-02-27T17:51:52.113Z,12.32
2018-02-27T17:54:19.668Z,12.98
2018-02-27T17:56:47.212Z,13.25
2018-02-27T17:59:14.789Z,13.73
2018-02-27T18:01:42.368Z,12.13
2018-02-27T18:04:10.671Z,12.57
2018-02-27T18:06:39.158Z,13.68
2018-02-27T18:09:06.681Z,14.57
2018-02-27T18:11:34.993Z,14.70
2018-02-27T18:14:02.511Z,15.25
2018-02-27T18:16:30.031Z,14.00
2018-02-27T18:18:58.663Z,13.75
2018-02-27T18:21:26.940Z,14.18
2018-02-27T18:23:55.286Z,13.20
2018-02-27T18:26:22.809Z,13.35
2018-02-27T18:28:50.372Z,14.23
2018-02-27T18:31:17.905Z,14.35
2018-02-27T18:33:45.457Z,14.60
2018-02-27T18:36:13.014Z,13.70
2018-02-27T18:38:41.161Z,15.38
2018-02-27T18:41:08.725Z,14.87
2018-02-27T18:43:36.256Z,15.00
2018-02-27T18:46:03.829Z,13.62
2018-02-27T18:48:31.378Z,14.95
2018-02-27T18:50:58.914Z,15.00
2018-02-27T18:53:27.206Z,14.27
2018-02-27T18:55:54.734Z,14.23
2018-02-27T18:58:23.057Z,16.58
2018-02-27T19:00:50.789Z,13.65
2018-02-27T19:03:19.131Z,11.15
2018-02-27T19:05:46.665Z,14.05
2018-02-27T19:08:14.211Z,12.90
2018-02-27T19:10:41.760Z,13.60
2018-02-27T19:13:09.279Z,14.00
2018-02-27T19:15:36.838Z,15.23
2018-02-27T19:18:04.369Z,13.90
2018-02-27T19:20:31.935Z,15.70
2018-02-27T19:22:59.463Z,13.52
2018-02-27T19:25:27.021Z,16.00
2018-02-27T19:27:54.532Z,16.30
2018-02-27T19:30:22.057Z,13.95
2018-02-27T19:32:49.602Z,15.50
2018-02-27T19:35:17.149Z,16.20
2018-02-27T19:37:45.458Z,14.85
2018-02-27T19:40:12.985Z,16.60
2018-02-27T19:42:41.294Z,18.45
2018-02-27T19:45:08.813Z,16.87
2018-02-27T19:47:37.104Z,14.90
2018-02-27T19:50:05.410Z,14.98
2018-02-27T19:52:32.958Z,16.52
2018-02-27T19:55:00.505Z,14.07
2018-02-27T19:57:28.808Z,14.82
2018-02-27T19:59:56.369Z,16.50
2018-02-27T20:02:23.897Z,14.68
2018-02-27T20:04:52.194Z,16.35
2018-02-27T20:07:19.742Z,16.10
2018-02-27T20:09:48.016Z,17.48
2018-02-27T20:12:16.320Z,14.85
2018-02-27T20:14:44.614Z,15.48
2018-02-27T20:17:12.161Z,15.07
2018-02-27T20:19:39.686Z,16.25
2018-02-27T20:22:08.027Z,15.43
2018-02-27T20:24:35.549Z,15.02
2018-02-27T20:27:03.065Z,14.85
2018-02-27T20:29:30.615Z,17.58
2018-02-27T20:31:58.228Z,15.85
2018-02-27T20:34:25.781Z,14.60
2018-02-27T20:36:53.332Z,16.27
2018-02-27T20:39:23.482Z,14.70
2018-02-27T20:41:51.019Z,15.77
2018-02-27T20:44:19.401Z,15.88
2018-02-27T20:46:46.932Z,15.80
2018-02-27T20:49:14.469Z,16.50
2018-02-27T20:51:42.013Z,16.67
2018-02-27T20:54:09.533Z,15.52
2018-02-27T20:56:37.838Z,14.68
2018-02-27T20:59:05.438Z,15.82
2018-02-27T21:01:32.968Z,16.62
2018-02-27T21:04:00.486Z,17.00
2018-02-27T21:06:28.790Z,16.30
2018-02-27T21:08:57.083Z,14.65
2018-02-27T21:11:24.600Z,15.90
2018-02-27T21:13:52.181Z,14.68
2018-02-27T21:16:19.715Z,15.57
2018-02-27T21:18:48.108Z,16.40
2018-02-27T21:21:16.397Z,16.10
2018-02-27T21:23:43.934Z,15.77
2018-02-27T21:26:12.270Z,16.55
2018-02-27T21:28:39.835Z,15.95
2018-02-27T21:31:08.143Z,16.45
2018-02-27T21:33:35.684Z,18.05
2018-02-27T21:36:03.259Z,18.58
2018-02-27T21:38:30.799Z,17.20
2018-02-27T21:40:58.339Z,17.15
2018-02-27T21:43:25.861Z,17.67
2018-02-27T21:45:54.158Z,17.52
2018-02-27T21:48:21.725Z,18.50
2018-02-27T21:50:49.246Z,22.90
2018-02-27T21:53:16.792Z,23.75
2018-02-27T21:55:44.326Z,18.77
2018-02-27T21:58:11.865Z,20.77
2018-02-27T22:00:39.407Z,16.92
2018-02-27T22:03:07.697Z,17.73
2018-02-27T22:05:35.256Z,16.27
2018-02-27T22:08:02.801Z,17.10
2018-02-27T22:10:31.129Z,16.80
2018-02-27T22:12:58.642Z,16.62
2018-02-27T22:15:26.203Z,16.60
2018-02-27T22:17:53.749Z,16.62
2018-02-27T22:20:22.072Z,17.27
2018-02-27T22:22:49.608Z,18.50
2018-02-27T22:25:17.165Z,17.90
2018-02-27T22:27:44.708Z,17.73
2018-02-27T22:30:12.999Z,16.55
2018-02-27T22:32:41.347Z,18.65
2018-02-27T22:35:08.880Z,18.95
2018-02-27T22:37:36.458Z,17.15
2018-02-27T22:40:03.986Z,16.98
2018-02-27T22:42:32.269Z,16.42
2018-02-27T22:44:59.805Z,19.25
2018-02-27T22:47:27.325Z,17.75
2018-02-27T22:49:54.856Z,16.27
2018-02-27T22:52:22.371Z,17.42
2018-02-27T22:54:50.671Z,18.40
2018-02-27T22:57:18.178Z,18.52
2018-02-27T22:59:45.717Z,18.25
2018-02-27T23:02:13.270Z,16.25
2018-02-27T23:04:40.781Z,15.07
2018-02-27T23:07:09.087Z,15.20
2018-02-27T23:09:36.625Z,17.10
2018-02-27T23:12:04.177Z,16.37
2018-02-27T23:14:32.451Z,14.55
2018-02-27T23:16:59.967Z,15.23
2018-02-27T23:19:27.502Z,15.20
2018-02-27T23:21:55.013Z,16.05
2018-02-27T23:27:39.969Z,15.35
2018-02-27T23:30:09.051Z,15.70
2018-02-27T23:32:39.901Z,15.60
2018-02-27T23:35:30.848Z,15.63
2018-02-27T23:37:58.363Z,16.73
2018-02-27T23:40:25.893Z,17.12
2018-02-27T23:42:54.172Z,13.90
2018-02-27T23:45:22.478Z,15.07
2018-02-27T23:47:49.986Z,14.18
2018-02-27T23:50:17.498Z,15.20
2018-02-27T23:52:45.029Z,16.05
2018-02-27T23:55:13.310Z,15.68
2018-02-27T23:57:41.625Z,14.00
